createdAt,value
2023-03-05T00:00:45.665Z,64.0625
2023-03-05T00:01:46.610Z,63.95874023
2023-03-05T00:02:47.589Z,64.0625
2023-03-05T00:03:48.326Z,64.0625
2023-03-05T00:04:50.143Z,64.16625977
2023-03-05T00:05:51.755Z,64.27001953
2023-03-05T00:06:52.623Z,64.3737793
2023-03-05T00:07:53.493Z,64.3737793
2023-03-05T00:08:54.305Z,64.3737793
2023-03-05T00:09:55.592Z,64.3737793
2023-03-05T00:11:26.923Z,64.58129883
2023-03-05T00:12:27.866Z,64.58129883
2023-03-05T00:13:28.742Z,64.47753906
2023-03-05T00:14:29.611Z,64.27001953
2023-03-05T00:15:31.241Z,64.13574219
2023-03-05T00:16:32.691Z,64.03198242
2023-03-05T00:17:33.653Z,64.03198242
2023-03-05T00:18:34.572Z,64.03198242
2023-03-05T00:19:35.452Z,64.03198242
2023-03-05T00:20:36.302Z,63.92822266
2023-03-05T00:21:37.772Z,64.03198242
2023-03-05T00:22:38.853Z,64.23950195
2023-03-05T00:23:39.752Z,64.03198242
2023-03-05T00:24:40.874Z,64.03198242
2023-03-05T00:25:42.717Z,64.23950195
2023-03-05T00:26:43.441Z,64.27001953
2023-03-05T00:27:44.460Z,64.23950195
2023-03-05T00:28:45.384Z,64.3737793
2023-03-05T00:29:46.289Z,64.3737793
2023-03-05T00:30:47.277Z,64.3737793
2023-03-05T00:31:48.053Z,64.47753906
2023-03-05T00:32:48.968Z,64.68505859
2023-03-05T00:33:49.924Z,64.78881836
2023-03-05T00:34:51.024Z,64.78881836
2023-03-05T00:35:52.781Z,64.89257813
2023-03-05T00:36:53.447Z,64.89257813
2023-03-05T00:37:54.320Z,65.13061523
2023-03-05T00:39:26.019Z,65.44189453
2023-03-05T00:40:27.048Z,65.33813477
2023-03-05T00:41:27.977Z,65.33813477
2023-03-05T00:42:28.670Z,65.20385742
2023-03-05T00:43:30.177Z,64.99633789
2023-03-05T00:44:31.251Z,64.99633789
2023-03-05T00:45:32.288Z,65.10009766
2023-03-05T00:46:34.125Z,65.44189453
2023-03-05T00:47:34.874Z,65.5456543
2023-03-05T00:48:36.689Z,65.5456543
2023-03-05T00:49:37.645Z,65.5456543
2023-03-05T00:50:38.595Z,65.64941406
2023-03-05T00:51:39.586Z,65.96069336
2023-03-05T00:52:40.728Z,65.96069336
2023-03-05T00:53:41.540Z,66.06445313
2023-03-05T00:54:42.367Z,66.06445313
2023-03-05T00:55:43.448Z,65.96069336
2023-03-05T00:56:45.318Z,66.19873047
2023-03-05T00:57:46.164Z,66.19873047
2023-03-05T00:58:47.551Z,66.30249023
2023-03-05T00:59:48.368Z,66.40625
2023-03-05T01:00:49.387Z,66.27197266
2023-03-05T01:01:50.582Z,66.40625
2023-03-05T01:02:51.636Z,66.37573242
2023-03-05T01:03:53.079Z,66.06445313
2023-03-05T01:04:53.940Z,65.96069336
2023-03-05T01:06:26.671Z,65.75317383
2023-03-05T01:07:27.592Z,65.85693359
2023-03-05T01:08:28.419Z,65.85693359
2023-03-05T01:09:29.221Z,65.96069336
2023-03-05T01:10:30.173Z,66.06445313
2023-03-05T01:11:31.138Z,66.40625
2023-03-05T01:12:32.162Z,66.61376953
2023-03-05T01:13:33.238Z,66.7175293
2023-03-05T01:14:34.012Z,67.13256836
2023-03-05T01:15:34.898Z,67.13256836
2023-03-05T01:16:36.622Z,67.13256836
2023-03-05T01:17:37.547Z,67.23632813
2023-03-05T01:18:38.626Z,67.16308594
2023-03-05T01:19:39.454Z,67.37060547
2023-03-05T01:20:40.334Z,67.47436523
2023-03-05T01:21:42.140Z,67.47436523
2023-03-05T01:22:43.297Z,67.47436523
2023-03-05T01:23:44.424Z,67.578125
2023-03-05T01:24:45.357Z,67.68188477
2023-03-05T01:25:46.180Z,67.78564453
2023-03-05T01:26:48.039Z,67.68188477
2023-03-05T01:27:48.986Z,67.578125
2023-03-05T01:28:50.008Z,67.47436523
2023-03-05T01:29:50.851Z,67.578125
2023-03-05T01:30:51.718Z,67.578125
2023-03-05T01:31:52.593Z,67.578125
2023-03-05T01:32:53.460Z,67.78564453
2023-03-05T01:33:54.940Z,67.99316406
2023-03-05T01:35:27.234Z,67.99316406
2023-03-05T01:36:28.608Z,67.99316406
2023-03-05T01:37:29.405Z,67.99316406
2023-03-05T01:38:30.325Z,67.99316406
2023-03-05T01:39:31.312Z,67.8894043
2023-03-05T01:40:32.200Z,67.78564453
2023-03-05T01:41:33.039Z,67.78564453
2023-03-05T01:42:34.004Z,67.8894043
2023-03-05T01:43:34.838Z,67.99316406
2023-03-05T01:44:35.843Z,67.8894043
2023-03-05T01:45:36.995Z,67.99316406
2023-03-05T01:46:38.690Z,67.78564453
2023-03-05T01:47:39.585Z,67.99316406
2023-03-05T01:48:41.016Z,68.02368164
2023-03-05T01:49:41.994Z,68.12744141
2023-03-05T01:50:42.876Z,68.23120117
2023-03-05T01:51:43.857Z,68.23120117
2023-03-05T01:52:44.760Z,68.12744141
2023-03-05T01:53:46.655Z,68.4387207
2023-03-05T01:54:47.596Z,68.23120117
2023-03-05T01:55:48.511Z,68.12744141
2023-03-05T01:56:50.202Z,68.12744141
2023-03-05T01:57:51.084Z,68.12744141
2023-03-05T01:58:51.911Z,68.23120117
2023-03-05T01:59:52.868Z,68.12744141
2023-03-05T02:00:53.791Z,68.54248047
2023-03-05T02:02:25.396Z,68.54248047
2023-03-05T02:03:26.474Z,68.4387207
2023-03-05T02:04:28.144Z,68.23120117
2023-03-05T02:05:29.009Z,68.23120117
2023-03-05T02:06:30.743Z,68.23120117
2023-03-05T02:07:31.668Z,68.23120117
2023-03-05T02:08:32.751Z,68.4387207
2023-03-05T02:09:33.608Z,68.54248047
2023-03-05T02:10:34.537Z,68.54248047
2023-03-05T02:11:35.437Z,68.64624023
2023-03-05T02:12:36.370Z,68.54248047
2023-03-05T02:13:38.192Z,68.54248047
2023-03-05T02:14:39.139Z,68.64624023
2023-03-05T02:15:40.001Z,68.64624023
2023-03-05T02:16:41.738Z,68.54248047
2023-03-05T02:17:42.691Z,68.54248047
2023-03-05T02:18:43.670Z,68.75
2023-03-05T02:19:44.669Z,68.64624023
2023-03-05T02:20:45.656Z,68.64624023
2023-03-05T02:21:46.428Z,68.64624023
2023-03-05T02:22:47.454Z,68.75
2023-03-05T02:23:48.389Z,68.64624023
2023-03-05T02:24:49.306Z,68.75
2023-03-05T02:25:50.295Z,68.98803711
2023-03-05T02:26:51.637Z,68.85375977
2023-03-05T02:27:52.565Z,68.88427734
2023-03-05T02:28:53.576Z,68.85375977
2023-03-05T02:30:24.973Z,68.78051758
2023-03-05T02:31:25.942Z,68.98803711
2023-03-05T02:32:26.708Z,69.09179688
2023-03-05T02:33:27.534Z,68.98803711
2023-03-05T02:34:28.536Z,68.75
2023-03-05T02:35:29.553Z,68.54248047
2023-03-05T02:36:30.417Z,68.54248047
2023-03-05T02:37:32.067Z,68.64624023
2023-03-05T02:38:32.905Z,68.64624023
2023-03-05T02:39:33.840Z,68.64624023
2023-03-05T02:40:34.877Z,68.78051758
2023-03-05T02:41:35.898Z,68.78051758
2023-03-05T02:42:36.666Z,68.98803711
2023-03-05T02:43:37.636Z,69.09179688
2023-03-05T02:44:38.586Z,69.09179688
2023-03-05T02:45:39.662Z,69.19555664
2023-03-05T02:46:41.186Z,69.09179688
2023-03-05T02:47:42.051Z,69.29931641
2023-03-05T02:48:42.855Z,69.6105957
2023-03-05T02:49:43.727Z,69.40307617
2023-03-05T02:50:44.862Z,69.29931641
2023-03-05T02:51:46.774Z,69.09179688
2023-03-05T02:52:47.637Z,68.98803711
2023-03-05T02:53:48.507Z,68.98803711
2023-03-05T02:54:49.320Z,69.09179688
2023-03-05T02:55:50.306Z,69.09179688
2023-03-05T02:56:52.656Z,69.09179688
2023-03-05T02:57:54.004Z,68.98803711
2023-03-05T02:59:25.301Z,69.19555664
2023-03-05T03:00:26.234Z,69.19555664
2023-03-05T03:01:27.281Z,68.98803711
2023-03-05T03:02:28.260Z,69.09179688
2023-03-05T03:03:29.430Z,69.19555664
2023-03-05T03:04:31.122Z,69.19555664
2023-03-05T03:05:31.939Z,69.19555664
2023-03-05T03:06:32.900Z,69.29931641
2023-03-05T03:07:34.655Z,69.19555664
2023-03-05T03:08:35.598Z,68.98803711
2023-03-05T03:09:36.547Z,68.98803711
2023-03-05T03:10:37.459Z,69.32983398
2023-03-05T03:11:38.354Z,69.53735352
2023-03-05T03:12:40.202Z,69.32983398
2023-03-05T03:13:41.413Z,69.29931641
2023-03-05T03:14:42.419Z,69.53735352
2023-03-05T03:15:43.362Z,69.85473633
2023-03-05T03:16:45.185Z,69.50683594
2023-03-05T03:17:46.333Z,69.19555664
2023-03-05T03:18:48.170Z,68.98803711
2023-03-05T03:19:49.177Z,69.09179688
2023-03-05T03:20:50.019Z,69.19555664
2023-03-05T03:21:50.940Z,69.6105957
2023-03-05T03:22:52.848Z,69.43359375
2023-03-05T03:24:24.565Z,69.74487305
2023-03-05T03:25:25.531Z,69.74487305
2023-03-05T03:26:26.444Z,69.85473633
2023-03-05T03:27:28.167Z,69.64111328
2023-03-05T03:28:29.221Z,69.50683594
2023-03-05T03:29:30.137Z,69.40307617
2023-03-05T03:30:31.262Z,69.19555664
2023-03-05T03:31:33.163Z,69.19555664
2023-03-05T03:32:34.036Z,69.09179688
2023-03-05T03:33:34.941Z,69.09179688
2023-03-05T03:34:35.908Z,69.43359375
2023-03-05T03:35:36.907Z,69.85473633
2023-03-05T03:36:37.836Z,69.53735352
2023-03-05T03:37:39.603Z,69.40307617
2023-03-05T03:38:40.804Z,69.29931641
2023-03-05T03:39:41.837Z,69.09179688
2023-03-05T03:40:42.887Z,69.19555664
2023-03-05T03:41:43.859Z,69.40307617
2023-03-05T03:42:44.824Z,69.40307617
2023-03-05T03:43:45.824Z,69.09179688
2023-03-05T03:44:47.209Z,69.09179688
2023-03-05T03:45:48.276Z,69.29931641
2023-03-05T03:46:49.222Z,69.50683594
2023-03-05T03:47:51.179Z,69.29931641
2023-03-05T03:48:52.142Z,69.29931641
2023-03-05T03:49:53.328Z,69.64111328
2023-03-05T03:51:24.784Z,69.85473633
2023-03-05T03:52:25.866Z,69.71435547
2023-03-05T03:53:26.762Z,69.50683594
2023-03-05T03:54:27.736Z,69.40307617
2023-03-05T03:55:28.486Z,69.6105957
2023-03-05T03:56:29.448Z,69.50683594
2023-03-05T03:57:31.171Z,69.71435547
2023-03-05T03:58:32.127Z,69.6105957
2023-03-05T03:59:33.558Z,69.6105957
2023-03-05T04:00:34.327Z,69.50683594
2023-03-05T04:01:35.246Z,69.40307617
2023-03-05T04:02:36.291Z,69.19555664
2023-03-05T04:03:37.318Z,69.09179688
2023-03-05T04:04:39.229Z,69.09179688
2023-03-05T04:05:40.000Z,69.40307617
2023-03-05T04:06:41.109Z,69.40307617
2023-03-05T04:07:42.708Z,69.16503906
2023-03-05T04:08:43.690Z,69.19555664
2023-03-05T04:09:44.599Z,69.0612793
2023-03-05T04:10:45.407Z,68.95751953
2023-03-05T04:11:46.290Z,68.85375977
2023-03-05T04:12:47.185Z,68.64624023
2023-03-05T04:13:48.222Z,68.54248047
2023-03-05T04:14:49.120Z,68.40820313
2023-03-05T04:15:50.165Z,68.20068359
2023-03-05T04:16:51.004Z,68.20068359
2023-03-05T04:17:53.040Z,68.20068359
2023-03-05T04:19:24.454Z,67.99316406
2023-03-05T04:20:25.463Z,67.68188477
2023-03-05T04:21:26.320Z,67.78564453
2023-03-05T04:22:28.076Z,67.78564453
2023-03-05T04:23:28.895Z,67.578125
2023-03-05T04:24:29.861Z,67.54760742
2023-03-05T04:25:30.932Z,67.34008789
2023-03-05T04:26:31.873Z,67.44384766
2023-03-05T04:27:33.644Z,67.44384766
2023-03-05T04:28:34.442Z,67.23632813
2023-03-05T04:29:35.417Z,67.13256836
2023-03-05T04:30:36.455Z,67.34008789
2023-03-05T04:31:37.415Z,67.34008789
2023-03-05T04:32:38.355Z,67.23632813
2023-03-05T04:33:39.186Z,66.92504883
2023-03-05T04:34:40.125Z,66.7175293
2023-03-05T04:35:41.393Z,66.82128906
2023-03-05T04:36:42.135Z,66.82128906
2023-03-05T04:37:43.631Z,66.82128906
2023-03-05T04:38:44.470Z,66.92504883
2023-03-05T04:39:45.398Z,67.13256836
2023-03-05T04:40:46.348Z,67.02880859
2023-03-05T04:41:47.284Z,67.02880859
2023-03-05T04:42:48.258Z,67.13256836
2023-03-05T04:43:49.152Z,67.02880859
2023-03-05T04:44:50.548Z,66.92504883
2023-03-05T04:45:51.468Z,67.02880859
2023-03-05T04:46:52.873Z,67.02880859
2023-03-05T04:48:25.071Z,67.02880859
2023-03-05T04:49:25.890Z,66.92504883
2023-03-05T04:50:26.880Z,66.92504883
2023-03-05T04:51:28.776Z,67.13256836
2023-03-05T04:52:29.625Z,67.23632813
2023-03-05T04:53:30.633Z,67.02880859
2023-03-05T04:54:31.550Z,67.02880859
2023-03-05T04:55:32.467Z,66.7175293
2023-03-05T04:56:33.372Z,66.92504883
2023-03-05T04:57:35.165Z,66.82128906
2023-03-05T04:58:36.615Z,66.82128906
2023-03-05T04:59:37.497Z,66.92504883
2023-03-05T05:00:38.339Z,66.82128906
2023-03-05T05:01:39.312Z,67.02880859
2023-03-05T05:02:40.275Z,66.82128906
2023-03-05T05:03:41.237Z,67.02880859
2023-03-05T05:04:42.281Z,66.92504883
2023-03-05T05:05:43.139Z,66.82128906
2023-03-05T05:06:44.080Z,66.7175293
2023-03-05T05:07:45.679Z,66.92504883
2023-03-05T05:08:46.601Z,67.02880859
2023-03-05T05:09:47.715Z,67.02880859
2023-03-05T05:10:48.583Z,67.02880859
2023-03-05T05:11:49.471Z,67.23632813
2023-03-05T05:12:50.316Z,67.23632813
2023-03-05T05:13:51.318Z,66.92504883
2023-03-05T05:14:52.742Z,66.61376953
2023-03-05T05:16:24.238Z,66.7175293
2023-03-05T05:17:25.676Z,66.82128906
2023-03-05T05:18:26.500Z,66.7175293
2023-03-05T05:19:28.194Z,66.61376953
2023-03-05T05:20:29.072Z,66.51000977
2023-03-05T05:21:30.109Z,66.51000977
2023-03-05T05:22:31.068Z,66.61376953
2023-03-05T05:23:31.930Z,66.61376953
2023-03-05T05:24:32.976Z,66.61376953
2023-03-05T05:25:34.024Z,66.51000977
2023-03-05T05:26:35.688Z,66.30249023
2023-03-05T05:27:36.635Z,66.19873047
2023-03-05T05:28:37.566Z,66.19873047
2023-03-05T05:29:38.542Z,66.30249023
2023-03-05T05:30:39.542Z,66.40625
2023-03-05T05:31:40.972Z,66.43676758
2023-03-05T05:32:42.151Z,66.54052734
2023-03-05T05:33:43.569Z,66.54052734
2023-03-05T05:34:44.396Z,66.43676758
2023-03-05T05:35:45.512Z,66.64428711
2023-03-05T05:36:46.396Z,66.74804688
2023-03-05T05:37:47.448Z,66.54052734
2023-03-05T05:38:48.259Z,66.74804688
2023-03-05T05:39:49.059Z,66.85180664
2023-03-05T05:40:49.987Z,66.85180664
2023-03-05T05:41:50.940Z,66.85180664
2023-03-05T05:42:52.352Z,66.95556641
2023-03-05T05:44:24.515Z,67.05932617
2023-03-05T05:45:25.562Z,66.95556641
2023-03-05T05:46:26.450Z,66.95556641
2023-03-05T05:47:28.264Z,67.05932617
2023-03-05T05:48:29.228Z,67.16308594
2023-03-05T05:49:30.147Z,67.19360352
2023-03-05T05:50:31.027Z,67.19360352
2023-03-05T05:51:32.028Z,67.16308594
2023-03-05T05:52:32.937Z,67.16308594
2023-03-05T05:53:34.724Z,67.05932617
2023-03-05T05:54:35.660Z,66.95556641
2023-03-05T05:55:36.609Z,66.95556641
2023-03-05T05:56:38.135Z,66.85180664
2023-03-05T05:57:39.100Z,66.74804688
2023-03-05T05:58:40.079Z,66.54052734
2023-03-05T05:59:41.309Z,66.43676758
2023-03-05T06:00:42.116Z,66.43676758
2023-03-05T06:01:43.055Z,66.54052734
2023-03-05T06:02:44.119Z,66.3269043
2023-03-05T06:03:45.680Z,66.43676758
2023-03-05T06:04:47.591Z,66.54052734
2023-03-05T06:05:48.485Z,66.54052734
2023-03-05T06:06:49.361Z,66.54052734
2023-03-05T06:07:50.218Z,66.54052734
2023-03-05T06:08:51.156Z,66.64428711
2023-03-05T06:10:22.946Z,66.43676758
2023-03-05T06:11:23.854Z,66.54052734
2023-03-05T06:12:24.688Z,66.54052734
2023-03-05T06:13:26.177Z,66.64428711
2023-03-05T06:14:27.163Z,66.74804688
2023-03-05T06:15:28.092Z,66.85180664
2023-03-05T06:16:29.222Z,66.64428711
2023-03-05T06:17:30.899Z,66.54052734
2023-03-05T06:18:31.533Z,66.43676758
2023-03-05T06:19:32.502Z,66.3269043
2023-03-05T06:20:33.452Z,66.22314453
2023-03-05T06:21:34.409Z,66.22314453
2023-03-05T06:22:35.359Z,66.43676758
2023-03-05T06:23:37.182Z,66.46728516
2023-03-05T06:24:38.226Z,66.67480469
2023-03-05T06:25:39.060Z,66.77856445
2023-03-05T06:26:39.954Z,66.98608398
2023-03-05T06:27:41.096Z,66.85180664
2023-03-05T06:28:41.999Z,66.85180664
2023-03-05T06:29:42.893Z,66.43676758
2023-03-05T06:30:43.791Z,66.64428711
2023-03-05T06:31:44.668Z,66.74804688
2023-03-05T06:32:45.625Z,66.64428711
2023-03-05T06:33:47.137Z,66.85180664
2023-03-05T06:34:48.006Z,66.74804688
2023-03-05T06:35:49.078Z,66.74804688
2023-03-05T06:36:50.035Z,66.54052734
2023-03-05T06:37:50.993Z,66.54052734
2023-03-05T06:39:22.567Z,66.54052734
2023-03-05T06:40:23.519Z,66.43676758
2023-03-05T06:41:24.351Z,66.43676758
2023-03-05T06:42:25.311Z,66.54052734
2023-03-05T06:43:27.178Z,66.54052734
2023-03-05T06:44:28.656Z,66.43676758
2023-03-05T06:45:29.536Z,66.22314453
2023-03-05T06:46:30.471Z,65.80810547
2023-03-05T06:47:31.427Z,65.7043457
2023-03-05T06:48:33.196Z,65.80810547
2023-03-05T06:49:34.143Z,65.80810547
2023-03-05T06:50:35.071Z,65.7043457
2023-03-05T06:51:36.637Z,66.11938477
2023-03-05T06:52:37.658Z,66.25366211
2023-03-05T06:53:39.172Z,66.57104492
2023-03-05T06:54:40.114Z,66.57104492
2023-03-05T06:55:41.161Z,66.46728516
2023-03-05T06:56:42.007Z,66.46728516
2023-03-05T06:57:42.880Z,66.46728516
2023-03-05T06:58:43.847Z,66.46728516
2023-03-05T06:59:44.786Z,66.35742188
2023-03-05T07:00:45.653Z,66.46728516
2023-03-05T07:01:47.137Z,66.57104492
2023-03-05T07:02:48.328Z,66.77856445
2023-03-05T07:03:49.673Z,66.77856445
2023-03-05T07:04:50.626Z,66.85180664
2023-03-05T07:06:22.113Z,66.74804688
2023-03-05T07:07:22.919Z,66.74804688
2023-03-05T07:08:24.638Z,66.54052734
2023-03-05T07:09:25.588Z,66.43676758
2023-03-05T07:10:26.574Z,66.30249023
2023-03-05T07:11:27.554Z,66.30249023
2023-03-05T07:12:28.295Z,66.0949707
2023-03-05T07:13:29.092Z,65.88745117
2023-03-05T07:14:30.683Z,65.99121094
2023-03-05T07:15:31.621Z,65.99121094
2023-03-05T07:16:32.556Z,65.99121094
2023-03-05T07:17:33.387Z,65.78369141
2023-03-05T07:18:35.094Z,65.78369141
2023-03-05T07:19:35.881Z,65.88745117
2023-03-05T07:20:36.826Z,65.78369141
2023-03-05T07:21:39.909Z,65.67993164
2023-03-05T07:22:38.619Z,65.67993164
2023-03-05T07:23:39.447Z,65.67993164
2023-03-05T07:24:41.118Z,65.78369141
2023-03-05T07:25:42.077Z,65.64941406
2023-03-05T07:26:43.743Z,65.64941406
2023-03-05T07:27:44.531Z,65.64941406
2023-03-05T07:28:45.302Z,65.5456543
2023-03-05T07:29:46.174Z,65.44189453
2023-03-05T07:30:47.218Z,65.5456543
2023-03-05T07:31:48.191Z,65.33813477
2023-03-05T07:32:49.062Z,65.234375
2023-03-05T07:33:50.667Z,65.13061523
2023-03-05T07:35:21.903Z,65.10009766
2023-03-05T07:36:22.831Z,65.10009766
2023-03-05T07:37:23.767Z,64.89257813
2023-03-05T07:38:24.573Z,64.89257813
2023-03-05T07:39:25.410Z,64.99633789
2023-03-05T07:40:26.197Z,64.99633789
2023-03-05T07:41:27.194Z,64.99633789
2023-03-05T07:42:28.198Z,64.89257813
2023-03-05T07:43:29.089Z,64.89257813
2023-03-05T07:44:30.519Z,64.78881836
2023-03-05T07:45:31.416Z,64.55078125
2023-03-05T07:46:33.275Z,64.44702148
2023-03-05T07:47:34.164Z,64.44702148
2023-03-05T07:48:35.092Z,64.34326172
2023-03-05T07:49:36.022Z,64.34326172
2023-03-05T07:50:36.791Z,64.55078125
2023-03-05T07:51:38.675Z,64.44702148
2023-03-05T07:52:39.688Z,64.34326172
2023-03-05T07:53:40.815Z,64.13574219
2023-03-05T07:54:42.615Z,64.23950195
2023-03-05T07:55:43.497Z,64.58129883
2023-03-05T07:56:44.249Z,65.234375
2023-03-05T07:57:45.169Z,65.5456543
2023-03-05T07:58:45.920Z,65.64941406
2023-03-05T07:59:46.765Z,65.85693359
2023-03-05T08:00:47.633Z,65.64941406
2023-03-05T08:01:48.438Z,65.61889648
2023-03-05T08:02:49.551Z,65.41137695
2023-03-05T08:03:50.869Z,65.30761719
2023-03-05T08:05:23.167Z,65.20385742
2023-03-05T08:06:24.042Z,65.30761719
2023-03-05T08:07:24.933Z,65.75317383
2023-03-05T08:08:25.754Z,65.96069336
2023-03-05T08:09:26.577Z,66.03393555
2023-03-05T08:10:27.391Z,66.27197266
2023-03-05T08:11:28.209Z,66.16821289
2023-03-05T08:12:29.138Z,66.06445313
2023-03-05T08:13:30.052Z,66.24145508
2023-03-05T08:14:31.712Z,66.13769531
2023-03-05T08:15:32.671Z,66.13769531
2023-03-05T08:16:33.552Z,66.24145508
2023-03-05T08:17:34.518Z,66.03393555
2023-03-05T08:18:36.176Z,66.24145508
2023-03-05T08:19:36.919Z,66.34521484
2023-03-05T08:20:37.787Z,66.44287109
2023-03-05T08:21:38.764Z,66.65039063
2023-03-05T08:22:40.184Z,66.65039063
2023-03-05T08:23:41.089Z,66.75415039
2023-03-05T08:24:42.630Z,66.65039063
2023-03-05T08:25:43.646Z,66.44287109
2023-03-05T08:26:44.578Z,66.03393555
2023-03-05T08:27:45.481Z,65.93017578
2023-03-05T08:28:46.486Z,65.93017578
2023-03-05T08:29:47.428Z,65.93017578
2023-03-05T08:30:48.475Z,66.03393555
2023-03-05T08:31:49.557Z,66.03393555
2023-03-05T08:33:21.226Z,65.93017578
2023-03-05T08:34:22.623Z,66.51611328
2023-03-05T08:35:23.535Z,66.2109375
2023-03-05T08:36:24.354Z,66.10717773
2023-03-05T08:37:25.438Z,66.2109375
2023-03-05T08:38:26.293Z,66.2109375
2023-03-05T08:39:27.198Z,66.31469727
2023-03-05T08:40:28.063Z,66.31469727
2023-03-05T08:41:29.102Z,66.31469727
2023-03-05T08:42:30.028Z,66.31469727
2023-03-05T08:43:30.984Z,66.10717773
2023-03-05T08:44:32.735Z,66.00341797
2023-03-05T08:45:33.528Z,66.10717773
2023-03-05T08:46:34.417Z,66.00341797
2023-03-05T08:47:35.172Z,65.8996582
2023-03-05T08:48:36.643Z,65.8996582
2023-03-05T08:49:37.545Z,65.8996582
2023-03-05T08:50:39.089Z,65.79589844
2023-03-05T08:51:39.243Z,65.76538086
2023-03-05T08:52:40.198Z,65.66162109
2023-03-05T08:53:41.218Z,65.76538086
2023-03-05T08:54:43.288Z,65.66162109
2023-03-05T08:55:44.329Z,65.55786133
2023-03-05T08:56:44.863Z,65.66162109
2023-03-05T08:57:45.744Z,65.55786133
2023-03-05T08:58:46.656Z,65.66162109
2023-03-05T08:59:48.120Z,65.3503418
2023-03-05T09:00:48.950Z,65.45410156
2023-03-05T09:01:50.304Z,65.66162109
2023-03-05T09:03:21.655Z,65.66162109
2023-03-05T09:04:22.599Z,65.86914063
2023-03-05T09:05:24.473Z,65.83862305
2023-03-05T09:06:25.418Z,66.04614258
2023-03-05T09:07:27.059Z,65.94238281
2023-03-05T09:08:27.907Z,65.94238281
2023-03-05T09:09:28.844Z,65.52734375
2023-03-05T09:10:29.797Z,64.97802734
2023-03-05T09:11:30.678Z,64.77050781
2023-03-05T09:12:31.521Z,65.08178711
2023-03-05T09:13:32.332Z,65.60058594
2023-03-05T09:14:34.185Z,65.49682617
2023-03-05T09:15:35.704Z,65.49682617
2023-03-05T09:16:36.704Z,65.18554688
2023-03-05T09:17:37.544Z,65.18554688
2023-03-05T09:18:39.224Z,65.60058594
2023-03-05T09:19:40.116Z,65.28930664
2023-03-05T09:20:41.167Z,65.57006836
2023-03-05T09:21:42.667Z,65.46630859
2023-03-05T09:22:43.472Z,65.1550293
2023-03-05T09:23:44.403Z,65.36254883
2023-03-05T09:24:46.168Z,65.67382813
2023-03-05T09:25:47.034Z,65.36254883
2023-03-05T09:26:47.703Z,65.05126953
2023-03-05T09:27:48.504Z,64.63623047
2023-03-05T09:29:20.648Z,65.1550293
2023-03-05T09:30:22.224Z,65.1550293
2023-03-05T09:31:23.276Z,64.63623047
2023-03-05T09:32:24.091Z,64.32495117
2023-03-05T09:33:25.026Z,65.46630859
2023-03-05T09:34:25.904Z,65.46630859
2023-03-05T09:35:27.615Z,65.25878906
2023-03-05T09:36:29.276Z,64.5324707
2023-03-05T09:37:30.702Z,64.30053711
2023-03-05T09:38:31.642Z,64.09301758
2023-03-05T09:39:33.159Z,64.40429688
2023-03-05T09:40:33.991Z,65.22827148
2023-03-05T09:41:35.693Z,66.36352539
2023-03-05T09:42:37.149Z,66.43676758
2023-03-05T09:43:38.139Z,66.1315918
2023-03-05T09:44:38.983Z,67.47436523
2023-03-05T09:45:41.040Z,68.71337891
2023-03-05T09:46:42.133Z,66.92504883
2023-03-05T09:47:43.017Z,65.99731445
2023-03-05T09:48:44.642Z,64.75830078
2023-03-05T09:49:45.572Z,65.24047852
2023-03-05T09:50:46.346Z,63.72070313
2023-03-05T09:51:47.118Z,63.69018555
2023-03-05T09:52:48.422Z,63.79394531
2023-03-05T09:53:49.821Z,63.17749023
2023-03-05T09:55:22.160Z,63.17749023
2023-03-05T09:56:22.909Z,63.38500977
2023-03-05T09:57:23.813Z,63.38500977
2023-03-05T09:58:24.719Z,62.65869141
2023-03-05T09:59:26.591Z,62.55493164
2023-03-05T10:00:27.359Z,62.76245117
2023-03-05T10:01:29.139Z,62.79296875
2023-03-05T10:02:29.953Z,62.89672852
2023-03-05T10:03:31.730Z,62.89672852
2023-03-05T10:04:33.163Z,63.00048828
2023-03-05T10:05:34.613Z,63.10424805
2023-03-05T10:06:35.425Z,63.31176758
2023-03-05T10:07:36.324Z,63.00048828
2023-03-05T10:08:37.329Z,63.31176758
2023-03-05T10:09:39.138Z,63.51318359
2023-03-05T10:10:39.967Z,63.51318359
2023-03-05T10:11:41.142Z,63.61694336
2023-03-05T10:12:42.993Z,63.72070313
2023-03-05T10:13:43.653Z,63.41552734
2023-03-05T10:14:44.590Z,63.31176758
2023-03-05T10:15:46.155Z,63.17749023
2023-03-05T10:16:46.965Z,63.17749023
2023-03-05T10:17:48.724Z,63.07373047
2023-03-05T10:19:21.195Z,62.9699707
2023-03-05T10:20:22.336Z,62.65869141
2023-03-05T10:21:23.098Z,62.65869141
2023-03-05T10:22:23.925Z,62.55493164
2023-03-05T10:23:24.920Z,62.45727539
2023-03-05T10:24:25.813Z,62.65869141
2023-03-05T10:25:27.792Z,62.65869141
2023-03-05T10:26:28.774Z,62.65869141
2023-03-05T10:27:29.799Z,62.76245117
2023-03-05T10:28:30.718Z,62.9699707
2023-03-05T10:29:32.600Z,63.07373047
2023-03-05T10:30:33.474Z,63.17749023
2023-03-05T10:31:34.391Z,62.93945313
2023-03-05T10:32:36.133Z,62.83569336
2023-03-05T10:33:37.133Z,62.73803711
2023-03-05T10:34:38.005Z,62.53051758
2023-03-05T10:35:39.758Z,62.53051758
2023-03-05T10:36:40.664Z,62.73803711
2023-03-05T10:37:41.493Z,62.53051758
2023-03-05T10:38:42.535Z,62.60375977
2023-03-05T10:39:43.435Z,62.29248047
2023-03-05T10:40:45.165Z,62.08496094
2023-03-05T10:41:46.090Z,62.29248047
2023-03-05T10:42:46.878Z,62.1887207
2023-03-05T10:43:47.883Z,62.08496094
2023-03-05T10:44:49.228Z,61.67602539
2023-03-05T10:46:21.572Z,61.57226563
2023-03-05T10:47:23.112Z,61.36474609
2023-03-05T10:48:24.124Z,61.36474609
2023-03-05T10:49:25.709Z,61.26098633
2023-03-05T10:50:26.571Z,61.33422852
2023-03-05T10:51:27.394Z,61.23657227
2023-03-05T10:52:28.327Z,60.8215332
2023-03-05T10:53:29.183Z,60.92529297
2023-03-05T10:54:30.718Z,61.23657227
2023-03-05T10:55:32.228Z,61.23657227
2023-03-05T10:56:33.019Z,61.02905273
2023-03-05T10:57:33.787Z,61.02905273
2023-03-05T10:58:34.757Z,60.8215332
2023-03-05T10:59:35.767Z,60.51025391
2023-03-05T11:00:36.603Z,60.40649414
2023-03-05T11:01:37.752Z,60.8215332
2023-03-05T11:02:38.514Z,61.26098633
2023-03-05T11:03:39.474Z,61.67602539
2023-03-05T11:04:40.447Z,61.36474609
2023-03-05T11:05:42.306Z,61.46850586
2023-03-05T11:06:44.181Z,61.67602539
2023-03-05T11:07:45.005Z,61.74926758
2023-03-05T11:08:45.852Z,62.36572266
2023-03-05T11:09:47.730Z,62.67700195
2023-03-05T11:10:49.088Z,62.57324219
2023-03-05T11:12:20.424Z,61.74926758
2023-03-05T11:13:21.231Z,61.23657227
2023-03-05T11:14:22.127Z,61.33422852
2023-03-05T11:15:23.079Z,61.1328125